createdAt,value
2024-05-09T00:01:14.837Z,101993.34
2024-05-09T00:06:17.428Z,101986.81
2024-05-09T00:11:22.363Z,102011.88
2024-05-09T00:16:24.628Z,101994.03
2024-05-09T00:21:27.033Z,101995.03
2024-05-09T00:26:32.025Z,102007.00
2024-05-09T00:31:34.329Z,102001.16
2024-05-09T00:36:36.568Z,101988.97
2024-05-09T00:41:41.402Z,101988.22
2024-05-09T00:46:43.865Z,101986.84
2024-05-09T00:51:46.102Z,101999.94
2024-05-09T00:56:51.369Z,102002.84
2024-05-09T01:01:54.093Z,101997.94
2024-05-09T01:06:56.368Z,101997.50
2024-05-09T01:12:01.618Z,101984.34
2024-05-09T01:17:04.405Z,102007.75
2024-05-09T01:22:06.862Z,101990.19
2024-05-09T01:27:11.695Z,101986.78
2024-05-09T01:32:14.057Z,101988.50
2024-05-09T01:37:16.323Z,101984.00
2024-05-09T01:42:21.135Z,101956.41
2024-05-09T01:47:23.567Z,101981.25
2024-05-09T01:52:25.867Z,101999.50
2024-05-09T01:57:31.085Z,101991.78
2024-05-09T02:02:34.317Z,101953.59
2024-05-09T02:07:36.613Z,101976.50
2024-05-09T02:12:41.704Z,101996.44
2024-05-09T02:17:44.221Z,101989.47
2024-05-09T02:22:46.868Z,101983.28
2024-05-09T02:27:51.761Z,101954.50
2024-05-09T02:32:54.096Z,101975.81
2024-05-09T02:37:56.447Z,101976.25
2024-05-09T02:43:01.365Z,101977.78
2024-05-09T02:48:04.220Z,101970.16
2024-05-09T02:53:06.734Z,101991.53
2024-05-09T02:58:12.095Z,101990.50
2024-05-09T03:03:15.685Z,101989.41
2024-05-09T03:08:18.472Z,101950.38
2024-05-09T03:13:23.693Z,101990.78
2024-05-09T03:18:25.984Z,101965.16
2024-05-09T03:23:28.463Z,101968.22
2024-05-09T03:28:33.495Z,101985.94
2024-05-09T03:33:36.009Z,101988.31
2024-05-09T03:38:38.709Z,101971.88
2024-05-09T03:43:44.137Z,101981.63
2024-05-09T03:48:46.476Z,101982.25
2024-05-09T03:53:49.567Z,101961.50
2024-05-09T03:58:55.433Z,101904.31
2024-05-09T04:03:58.514Z,101921.13
2024-05-09T04:09:00.955Z,101956.25
2024-05-09T04:14:06.385Z,101965.13
2024-05-09T04:19:08.859Z,101991.59
2024-05-09T04:24:11.376Z,101968.34
2024-05-09T04:29:16.475Z,102001.16
2024-05-09T04:34:19.092Z,101903.97
2024-05-09T04:39:21.358Z,101980.66
2024-05-09T04:44:26.299Z,102001.63
2024-05-09T04:49:28.819Z,102004.47
2024-05-09T04:54:36.223Z,102003.03
2024-05-09T04:59:41.681Z,101992.25
2024-05-09T05:04:45.616Z,101996.41
2024-05-09T05:09:48.170Z,102003.19
2024-05-09T05:14:53.228Z,101977.03
2024-05-09T05:19:55.583Z,101984.91
2024-05-09T05:24:58.146Z,102005.72
2024-05-09T05:30:04.607Z,101982.75
2024-05-09T05:35:08.390Z,101942.06
2024-05-09T05:40:14.643Z,102016.53
2024-05-09T05:45:22.357Z,102010.47
2024-05-09T05:50:32.290Z,101854.38
2024-05-09T05:55:39.570Z,102015.78
2024-05-09T06:00:45.668Z,102013.78
2024-05-09T06:05:47.973Z,101986.59
2024-05-09T06:10:50.509Z,102016.38
2024-05-09T06:15:55.725Z,101998.19
2024-05-09T06:20:58.063Z,101991.66
2024-05-09T06:26:00.444Z,102016.22
2024-05-09T06:31:05.642Z,101990.41
2024-05-09T06:36:08.492Z,101926.53
2024-05-09T06:41:10.877Z,102029.16
2024-05-09T06:46:15.738Z,102023.88
2024-05-09T06:51:18.040Z,102034.34
2024-05-09T06:56:20.344Z,102024.84
2024-05-09T07:01:25.188Z,101959.31
2024-05-09T07:06:27.456Z,102032.38
2024-05-09T07:11:29.854Z,102043.56
2024-05-09T07:16:35.114Z,102037.03
2024-05-09T07:21:37.391Z,102027.16
2024-05-09T07:26:39.863Z,102019.00
2024-05-09T07:31:44.628Z,102041.91
2024-05-09T07:36:47.314Z,102029.00
2024-05-09T07:41:49.773Z,102039.38
2024-05-09T07:48:13.769Z,102027.41
2024-05-09T07:53:29.940Z,102033.34
2024-05-09T07:57:38.852Z,102027.78
2024-05-09T08:02:43.722Z,102036.16
2024-05-09T08:07:46.008Z,102012.41
2024-05-09T08:12:48.375Z,102026.09
2024-05-09T08:17:53.264Z,102019.41
2024-05-09T08:22:55.590Z,102023.16
2024-05-09T08:27:57.619Z,102001.56
2024-05-09T08:33:03.649Z,101977.56
2024-05-09T08:38:07.522Z,101971.97
2024-05-09T08:43:12.089Z,101999.84
2024-05-09T08:48:19.990Z,102002.69
2024-05-09T08:53:22.646Z,101978.38
2024-05-09T08:58:26.495Z,101987.44
2024-05-09T09:03:33.811Z,101978.38
2024-05-09T09:08:39.515Z,101982.31
2024-05-09T09:13:41.994Z,101952.97
2024-05-09T09:18:47.088Z,101971.56
2024-05-09T09:23:49.425Z,101950.56
2024-05-09T09:28:52.228Z,101959.88
2024-05-09T09:33:57.770Z,101928.56
2024-05-09T09:39:00.511Z,101951.00
2024-05-09T09:44:04.417Z,101911.91
2024-05-09T09:49:10.255Z,101903.97
2024-05-09T09:54:14.033Z,101888.84
2024-05-09T09:59:16.620Z,101935.50
2024-05-09T10:04:21.666Z,101920.81
2024-05-09T10:09:24.460Z,101915.84
2024-05-09T10:14:26.886Z,101909.81
2024-05-09T10:19:33.773Z,101904.16
2024-05-09T10:24:49.329Z,101896.91
2024-05-09T10:29:52.742Z,101889.19
2024-05-09T10:35:07.954Z,101892.91
2024-05-09T10:45:19.708Z,101857.69
2024-05-09T10:50:28.786Z,101873.50
2024-05-09T10:55:34.309Z,101851.25
2024-05-09T11:00:36.918Z,101867.22
2024-05-09T11:05:43.248Z,101856.16
2024-05-09T11:10:46.417Z,101838.25
2024-05-09T11:15:49.020Z,101827.84
2024-05-09T11:20:55.348Z,101824.44
2024-05-09T11:25:58.965Z,101831.72
2024-05-09T11:31:08.959Z,101774.38
2024-05-09T11:36:15.374Z,101800.00
2024-05-09T11:41:18.803Z,101806.75
2024-05-09T11:46:21.309Z,101812.38
2024-05-09T11:51:26.285Z,101807.09
2024-05-09T11:56:28.724Z,101789.47
2024-05-09T12:01:31.209Z,101783.25
2024-05-09T12:06:36.375Z,101787.94
2024-05-09T12:11:38.704Z,101790.16
2024-05-09T12:16:41.141Z,101779.44
2024-05-09T12:21:46.340Z,101684.19
2024-05-09T12:26:48.636Z,101689.56
2024-05-09T12:31:51.047Z,101730.94
2024-05-09T12:36:56.106Z,101746.53
2024-05-09T12:41:58.440Z,101759.56
2024-05-09T12:47:00.751Z,101728.81
2024-05-09T12:52:06.242Z,101726.59
2024-05-09T12:57:08.606Z,101721.63
2024-05-09T13:02:11.046Z,101715.63
2024-05-09T13:07:16.339Z,101723.13
2024-05-09T13:12:19.321Z,101714.63
2024-05-09T13:17:22.405Z,101696.59
2024-05-09T13:22:27.626Z,101718.28
2024-05-09T13:27:29.957Z,101648.38
2024-05-09T13:32:32.660Z,101697.88
2024-05-09T13:37:37.864Z,101656.97
2024-05-09T13:42:40.239Z,101694.03
2024-05-09T13:47:42.788Z,101677.91
2024-05-09T13:52:47.764Z,101687.88
2024-05-09T13:57:50.369Z,101675.22
2024-05-09T14:02:52.675Z,101687.28
2024-05-09T14:07:58.544Z,101672.28
2024-05-09T14:13:01.435Z,101666.44
2024-05-09T14:18:04.301Z,101647.81
2024-05-09T14:23:09.568Z,101655.00
2024-05-09T14:28:13.198Z,101637.88
2024-05-09T14:33:16.139Z,101640.03
2024-05-09T14:38:21.233Z,101624.06
2024-05-09T14:43:23.558Z,101618.03
2024-05-09T14:48:26.064Z,101632.84
2024-05-09T14:53:30.967Z,101609.03
2024-05-09T14:58:33.334Z,101618.75
2024-05-09T15:03:35.865Z,101614.84
2024-05-09T15:08:40.797Z,101602.28
2024-05-09T15:13:43.052Z,101621.53
2024-05-09T15:18:45.718Z,101573.44
2024-05-09T15:23:50.968Z,101589.47
2024-05-09T15:28:53.219Z,101475.94
2024-05-09T15:33:55.882Z,101543.34
2024-05-09T15:39:01.184Z,101558.19
2024-05-09T15:44:03.494Z,101549.69
2024-05-09T15:49:05.934Z,101554.56
2024-05-09T15:54:11.134Z,101565.06
2024-05-09T15:59:13.450Z,101575.72
2024-05-09T16:04:15.888Z,101540.56
2024-05-09T16:09:21.230Z,101552.81
2024-05-09T16:14:23.517Z,101570.50
2024-05-09T16:19:26.087Z,101556.34
2024-05-09T16:24:31.314Z,101563.34
2024-05-09T16:29:33.884Z,101561.38
2024-05-09T16:34:36.198Z,101543.59
2024-05-09T16:39:41.104Z,101532.81
2024-05-09T16:44:43.416Z,101547.25
2024-05-09T16:49:45.672Z,101486.47
2024-05-09T16:54:51.100Z,101534.06
2024-05-09T16:59:53.384Z,101497.28
2024-05-09T17:04:55.819Z,101509.91
2024-05-09T17:10:00.803Z,101545.00
2024-05-09T17:15:03.260Z,101545.56
2024-05-09T17:20:10.433Z,101524.19
2024-05-09T17:25:20.812Z,101548.47
2024-05-09T17:30:28.985Z,101548.50
2024-05-09T17:35:37.316Z,101534.66
2024-05-09T17:40:42.543Z,101518.03
2024-05-09T17:45:44.895Z,101502.09
2024-05-09T17:50:47.181Z,101539.88
2024-05-09T17:55:52.084Z,101508.69
2024-05-09T18:00:54.527Z,101525.38
2024-05-09T18:05:57.234Z,101533.13
2024-05-09T18:11:02.212Z,101534.56
2024-05-09T18:16:05.036Z,101543.53
2024-05-09T18:21:07.291Z,101512.09
2024-05-09T18:26:13.122Z,101514.44
2024-05-09T18:31:15.583Z,101548.09
2024-05-09T18:36:18.054Z,101463.19
2024-05-09T18:41:23.004Z,101513.66
2024-05-09T18:46:25.506Z,101535.66
2024-05-09T18:51:27.968Z,101553.09
2024-05-09T18:56:33.009Z,101534.69
2024-05-09T19:01:35.686Z,101558.75
2024-05-09T19:06:38.198Z,101517.78
2024-05-09T19:11:43.213Z,101566.31
2024-05-09T19:16:45.507Z,101579.38
2024-05-09T19:21:48.003Z,101543.88
2024-05-09T19:26:53.224Z,101552.34
2024-05-09T19:31:56.750Z,101497.06
2024-05-09T19:36:59.277Z,101589.84
2024-05-09T19:42:04.904Z,101568.72
2024-05-09T19:47:07.178Z,101599.78
2024-05-09T19:52:09.668Z,101546.06
2024-05-09T19:57:14.753Z,101501.44
2024-05-09T20:02:17.311Z,101603.28
2024-05-09T20:07:19.929Z,101606.81
2024-05-09T20:12:25.083Z,101610.31
2024-05-09T20:17:27.375Z,101571.94
2024-05-09T20:22:29.817Z,101632.00
2024-05-09T20:27:34.991Z,101612.66
2024-05-09T20:32:37.468Z,101601.13
2024-05-09T20:37:39.907Z,101569.94
2024-05-09T20:42:44.857Z,101619.41
2024-05-09T20:47:47.255Z,101610.63
2024-05-09T20:52:49.544Z,101585.03
2024-05-09T20:57:54.147Z,101621.00
2024-05-09T21:02:56.394Z,101502.72
2024-05-09T21:07:58.386Z,101621.53
2024-05-09T21:13:04.002Z,101618.66
2024-05-09T21:18:06.837Z,101600.91
2024-05-09T21:23:09.349Z,101597.56
2024-05-09T21:28:14.503Z,101619.25
2024-05-09T21:33:17.044Z,101619.16
2024-05-09T21:38:19.523Z,101602.47
2024-05-09T21:43:24.516Z,101612.16
2024-05-09T21:48:26.960Z,101597.25
2024-05-09T21:53:29.221Z,101635.03
2024-05-09T21:58:34.168Z,101605.53
2024-05-09T22:03:36.522Z,101628.91
2024-05-09T22:08:38.847Z,101608.66
2024-05-09T22:13:43.752Z,101624.66
2024-05-09T22:18:46.108Z,101629.72
2024-05-09T22:23:48.347Z,101631.56
2024-05-09T22:28:53.469Z,101619.97
2024-05-09T22:33:55.984Z,101603.56
2024-05-09T22:38:58.516Z,101632.56
2024-05-09T22:44:03.373Z,101631.41
2024-05-09T22:49:05.761Z,101619.16
2024-05-09T22:54:08.108Z,101544.50
2024-05-09T22:59:13.106Z,101628.19
2024-05-09T23:04:15.408Z,101610.09
2024-05-09T23:09:17.864Z,101637.66
2024-05-09T23:14:22.856Z,101636.31
2024-05-09T23:19:25.112Z,101594.97
2024-05-09T23:24:27.638Z,101559.72
2024-05-09T23:29:32.766Z,101626.63
2024-05-09T23:34:35.118Z,101588.97
2024-05-09T23:39:37.581Z,101617.91
2024-05-09T23:44:42.558Z,101600.03
2024-05-09T23:49:44.853Z,101624.97
2024-05-09T23:54:47.186Z,101604.19
2024-05-09T23:59:52.153Z,101618.94
